Terminal Aerodrome Forecast
Issued by NWS Oklahoma City, OK

Home | Current Version | Previous Version | Text Only | Print | Product List | Glossary On
Versions: 1 2 3 4 5 6 7 8 9 10 11 12 13 14
000
FTUS44 KOUN 251134
TAFOUN
TAF
KOUN 251134Z 2512/2612 17012G18KT P6SM SCT016
      TEMPO 2512/2516 BKN015
     FM251600 17014G21KT P6SM BKN035
     FM260400 17010KT P6SM BKN015=

USA.gov is the U.S. government's official web portal to all federal, state and local government web resources and services.